createdAt,value
2014-07-22T00:00:17.558Z,99513
2014-07-22T00:00:35.761Z,99507
2014-07-22T00:00:53.995Z,99516
2014-07-22T00:01:12.217Z,99510
2014-07-22T00:01:30.420Z,99516
2014-07-22T00:01:48.654Z,99501
2014-07-22T00:02:06.873Z,99507
2014-07-22T00:02:25.077Z,99507
2014-07-22T00:02:43.312Z,99510
2014-07-22T00:03:01.515Z,99501
2014-07-22T00:03:19.751Z,99504
2014-07-22T00:03:37.970Z,99519
2014-07-22T00:03:56.189Z,99507
2014-07-22T00:04:14.394Z,99507
2014-07-22T00:04:32.612Z,99522
2014-07-22T00:04:50.800Z,99507
2014-07-22T00:05:09.019Z,99513
2014-07-22T00:05:27.239Z,99516
2014-07-22T00:05:45.458Z,99510
2014-07-22T00:06:03.693Z,99513
2014-07-22T00:06:21.898Z,99516
2014-07-22T00:06:40.116Z,99513
2014-07-22T00:06:58.351Z,99507
2014-07-22T00:07:16.538Z,99504
2014-07-22T00:07:34.776Z,99498
2014-07-22T00:07:52.979Z,99507
2014-07-22T00:08:11.198Z,99507
2014-07-22T00:08:29.417Z,99513
2014-07-22T00:08:47.620Z,99516
2014-07-22T00:09:05.824Z,99516
2014-07-22T00:09:24.058Z,99513
2014-07-22T00:09:42.279Z,99504
2014-07-22T00:10:00.497Z,99513
2014-07-22T00:10:18.701Z,99519
2014-07-22T00:10:36.921Z,99510
2014-07-22T00:10:55.156Z,99510
2014-07-22T00:11:13.359Z,99516
2014-07-22T00:11:31.564Z,99510
2014-07-22T00:11:49.798Z,99504
2014-07-22T00:12:08.001Z,99516
2014-07-22T00:12:26.220Z,99516
2014-07-22T00:12:44.441Z,99507
2014-07-22T00:13:02.644Z,99510
2014-07-22T00:13:20.878Z,99513
2014-07-22T00:13:39.068Z,99519
2014-07-22T00:13:57.287Z,99513
2014-07-22T00:14:15.521Z,99513
2014-07-22T00:14:33.742Z,99507
2014-07-22T00:14:51.945Z,99513
2014-07-22T00:15:10.164Z,99513
2014-07-22T00:15:28.382Z,99510
2014-07-22T00:15:46.604Z,99507
2014-07-22T00:16:04.823Z,99501
2014-07-22T00:16:23.026Z,99513
2014-07-22T00:16:41.230Z,99516
2014-07-22T00:16:59.449Z,99516
2014-07-22T00:17:17.668Z,99507
2014-07-22T00:17:35.904Z,99513
2014-07-22T00:17:54.123Z,99513
2014-07-22T00:18:26.498Z,99519
2014-07-22T00:18:44.719Z,99522
2014-07-22T00:19:02.937Z,99513
2014-07-22T00:19:21.156Z,99516
2014-07-22T00:19:39.361Z,99513
2014-07-22T00:19:57.580Z,99516
2014-07-22T00:20:15.799Z,99522
2014-07-22T00:20:34.017Z,99513
2014-07-22T00:20:52.254Z,99510
2014-07-22T00:21:10.473Z,99516
2014-07-22T00:21:28.676Z,99519
2014-07-22T00:21:46.896Z,99522
2014-07-22T00:22:05.115Z,99516
2014-07-22T00:22:23.318Z,99519
2014-07-22T00:22:41.555Z,99519
2014-07-22T00:22:59.742Z,99519
2014-07-22T00:23:17.977Z,99516
2014-07-22T00:23:36.195Z,99519
2014-07-22T00:23:54.400Z,99510
2014-07-22T00:24:12.775Z,99510
2014-07-22T00:24:30.979Z,99519
2014-07-22T00:24:49.184Z,99519
2014-07-22T00:25:07.418Z,99525
2014-07-22T00:25:25.621Z,99522
2014-07-22T00:25:43.858Z,99516
2014-07-22T00:26:02.061Z,99516
2014-07-22T00:26:20.514Z,99513
2014-07-22T00:26:38.748Z,99516
2014-07-22T00:26:56.953Z,99519
2014-07-22T00:27:15.188Z,99519
2014-07-22T00:27:33.375Z,99519
2014-07-22T00:27:51.611Z,99519
2014-07-22T00:28:09.814Z,99525
2014-07-22T00:28:28.032Z,99522
2014-07-22T00:28:46.254Z,99519
2014-07-22T00:29:04.473Z,99528
2014-07-22T00:29:22.676Z,99516
2014-07-22T00:29:40.895Z,99519
2014-07-22T00:29:59.100Z,99516
2014-07-22T00:30:17.334Z,99525
2014-07-22T00:30:35.553Z,99522
2014-07-22T00:30:53.757Z,99528
2014-07-22T00:31:11.960Z,99528
2014-07-22T00:31:30.179Z,99519
2014-07-22T00:31:48.398Z,99516
2014-07-22T00:32:06.620Z,99525
2014-07-22T00:32:24.838Z,99510
2014-07-22T00:32:43.057Z,99525
2014-07-22T00:33:01.262Z,99522
2014-07-22T00:33:19.481Z,99519
2014-07-22T00:33:37.700Z,99528
2014-07-22T00:33:55.903Z,99519
2014-07-22T00:34:14.107Z,99525
2014-07-22T00:34:32.326Z,99525
2014-07-22T00:34:50.560Z,99525
2014-07-22T00:35:08.782Z,99516
2014-07-22T00:35:26.985Z,99528
2014-07-22T00:35:45.204Z,99519
2014-07-22T00:36:03.422Z,99528
2014-07-22T00:36:21.643Z,99528
2014-07-22T00:36:39.878Z,99533
2014-07-22T00:36:58.081Z,99516
2014-07-22T00:37:16.317Z,99519
2014-07-22T00:37:34.583Z,99528
2014-07-22T00:37:52.786Z,99528
2014-07-22T00:38:11.741Z,99530
2014-07-22T00:38:29.975Z,99533
2014-07-22T00:38:48.178Z,99528
2014-07-22T00:39:06.397Z,99533
2014-07-22T00:39:24.602Z,99525
2014-07-22T00:39:42.821Z,99522
2014-07-22T00:40:33.417Z,99533
2014-07-22T00:40:51.620Z,99528
2014-07-22T00:41:09.841Z,99530
2014-07-22T00:41:28.059Z,99522
2014-07-22T00:41:46.278Z,99530
2014-07-22T00:42:04.497Z,99519
2014-07-22T00:42:22.718Z,99533
2014-07-22T00:42:40.936Z,99525
2014-07-22T00:42:59.140Z,99528
2014-07-22T00:43:17.360Z,99525
2014-07-22T00:43:35.595Z,99525
2014-07-22T00:43:53.813Z,99525
2014-07-22T00:44:12.033Z,99528
2014-07-22T00:44:30.236Z,99525
2014-07-22T00:44:48.455Z,99530
2014-07-22T00:45:06.674Z,99516
2014-07-22T00:45:24.895Z,99519
2014-07-22T00:45:43.098Z,99528
2014-07-22T00:46:01.332Z,99530
2014-07-22T00:46:19.537Z,99533
2014-07-22T00:46:37.772Z,99528
2014-07-22T00:46:55.975Z,99528
2014-07-22T00:47:14.195Z,99533
2014-07-22T00:47:32.414Z,99525
2014-07-22T00:47:50.633Z,99536
2014-07-22T00:48:08.836Z,99528
2014-07-22T00:48:27.057Z,99530
2014-07-22T00:48:45.276Z,99533
2014-07-22T00:49:03.479Z,99522
2014-07-22T00:49:21.715Z,99522
2014-07-22T00:49:39.918Z,99536
2014-07-22T00:49:58.121Z,99519
2014-07-22T00:50:16.373Z,99525
2014-07-22T00:50:34.561Z,99525
2014-07-22T00:50:52.780Z,99528
2014-07-22T00:51:11.000Z,99530
2014-07-22T00:51:29.235Z,99522
2014-07-22T00:51:47.438Z,99530
2014-07-22T00:52:05.672Z,99528
2014-07-22T00:52:23.876Z,99516
2014-07-22T00:52:42.095Z,99525
2014-07-22T00:53:00.314Z,99530
2014-07-22T00:53:18.520Z,99533
2014-07-22T00:53:36.832Z,99533
2014-07-22T00:53:55.051Z,99533
2014-07-22T00:54:13.256Z,99530
2014-07-22T00:54:31.491Z,99530
2014-07-22T00:54:49.709Z,99525
2014-07-22T00:55:07.913Z,99533
2014-07-22T00:55:26.132Z,99525
2014-07-22T00:55:44.351Z,99525
2014-07-22T00:56:02.570Z,99525
2014-07-22T00:56:20.759Z,99530
2014-07-22T00:56:38.994Z,99530
2014-07-22T00:56:57.212Z,99530
2014-07-22T00:57:15.433Z,99525
2014-07-22T00:57:33.621Z,99525
2014-07-22T00:57:51.855Z,99530
2014-07-22T00:58:10.089Z,99525
2014-07-22T00:58:28.295Z,99525
2014-07-22T00:58:46.513Z,99528
2014-07-22T00:59:04.748Z,99525
2014-07-22T00:59:22.937Z,99533
2014-07-22T00:59:41.156Z,99528
2014-07-22T00:59:59.375Z,99530
2014-07-22T01:00:17.595Z,99539
2014-07-22T01:00:35.814Z,99528
2014-07-22T01:00:54.017Z,99525
2014-07-22T01:01:12.236Z,99522
2014-07-22T01:01:30.472Z,99528
2014-07-22T01:01:48.676Z,99528
2014-07-22T01:02:06.894Z,99528
2014-07-22T01:02:25.115Z,99519
2014-07-22T01:02:43.318Z,99525
2014-07-22T01:03:01.537Z,99530
2014-07-22T01:03:19.773Z,99525
2014-07-22T01:03:37.976Z,99519
2014-07-22T01:03:56.195Z,99528
2014-07-22T01:04:14.398Z,99542
2014-07-22T01:04:32.619Z,99530
2014-07-22T01:04:50.838Z,99539
2014-07-22T01:05:09.057Z,99528
2014-07-22T01:05:27.277Z,99525
2014-07-22T01:05:45.480Z,99533
2014-07-22T01:06:03.699Z,99519
2014-07-22T01:06:21.920Z,99533
2014-07-22T01:06:40.139Z,99530
2014-07-22T01:06:58.342Z,99528
2014-07-22T01:07:16.576Z,99530
2014-07-22T01:07:34.780Z,99539
2014-07-22T01:07:52.999Z,99533
2014-07-22T01:08:11.218Z,99530
2014-07-22T01:08:29.423Z,99539
2014-07-22T01:08:47.657Z,99530
2014-07-22T01:09:05.876Z,99533
2014-07-22T01:09:24.082Z,99530
2014-07-22T01:09:42.301Z,99533
2014-07-22T01:10:00.520Z,99536
2014-07-22T01:10:18.723Z,99522
2014-07-22T01:10:36.959Z,99533
2014-07-22T01:10:55.162Z,99533
2014-07-22T01:11:13.381Z,99542
2014-07-22T01:11:31.602Z,99528
2014-07-22T01:11:49.821Z,99539
2014-07-22T01:12:08.055Z,99533
2014-07-22T01:12:26.258Z,99530
2014-07-22T01:12:44.478Z,99528
2014-07-22T01:13:02.697Z,99536
2014-07-22T01:13:20.915Z,99519
2014-07-22T01:13:39.120Z,99525
2014-07-22T01:13:57.339Z,99525
2014-07-22T01:14:15.574Z,99528
2014-07-22T01:14:33.777Z,99519
2014-07-22T01:14:51.983Z,99530
2014-07-22T01:15:10.186Z,99530
2014-07-22T01:15:28.420Z,99525
2014-07-22T01:15:46.625Z,99533
2014-07-22T01:16:04.844Z,99528
2014-07-22T01:16:23.063Z,99528
2014-07-22T01:16:41.297Z,99525
2014-07-22T01:16:59.502Z,99530
2014-07-22T01:17:17.706Z,99536
2014-07-22T01:17:35.909Z,99525
2014-07-22T01:18:26.504Z,99525
2014-07-22T01:18:44.739Z,99528
2014-07-22T01:19:02.943Z,99519
2014-07-22T01:19:21.146Z,99530
2014-07-22T01:19:39.380Z,99528
2014-07-22T01:19:57.587Z,99528
2014-07-22T01:20:15.805Z,99530
2014-07-22T01:20:34.008Z,99519
2014-07-22T01:20:52.227Z,99516
2014-07-22T01:21:10.464Z,99522
2014-07-22T01:21:28.682Z,99513
2014-07-22T01:21:46.885Z,99525
2014-07-22T01:22:05.105Z,99525
2014-07-22T01:22:23.324Z,99522
2014-07-22T01:22:41.527Z,99519
2014-07-22T01:22:59.748Z,99530
2014-07-22T01:23:17.951Z,99525
2014-07-22T01:23:36.185Z,99513
2014-07-22T01:23:54.404Z,99516
2014-07-22T01:24:12.610Z,99513
2014-07-22T01:24:30.845Z,99528
2014-07-22T01:24:49.063Z,99519
2014-07-22T01:25:07.268Z,99530
2014-07-22T01:25:25.487Z,99525
2014-07-22T01:25:43.706Z,99525
2014-07-22T01:26:01.911Z,99522
2014-07-22T01:26:20.130Z,99519
2014-07-22T01:26:38.395Z,99525
2014-07-22T01:26:56.599Z,99516
2014-07-22T01:27:14.834Z,99528
2014-07-22T01:27:33.053Z,99519
2014-07-22T01:27:51.256Z,99519
2014-07-22T01:28:09.461Z,99528
2014-07-22T01:28:27.680Z,99522
2014-07-22T01:28:45.914Z,99522
2014-07-22T01:29:04.135Z,99519
2014-07-22T01:29:22.322Z,99525
2014-07-22T01:29:40.557Z,99528
2014-07-22T01:29:58.775Z,99528
2014-07-22T01:30:16.996Z,99525
2014-07-22T01:30:35.215Z,99525
2014-07-22T01:30:53.402Z,99530
2014-07-22T01:31:11.623Z,99528
2014-07-22T01:31:29.842Z,99522
2014-07-22T01:31:48.045Z,99525
2014-07-22T01:32:06.282Z,99525
2014-07-22T01:32:24.501Z,99528
2014-07-22T01:32:42.720Z,99522
2014-07-22T01:33:00.939Z,99530
2014-07-22T01:33:19.158Z,99519
2014-07-22T01:33:37.362Z,99530
2014-07-22T01:33:55.596Z,99519
2014-07-22T01:34:13.801Z,99528
2014-07-22T01:34:32.020Z,99522
2014-07-22T01:34:50.223Z,99516
2014-07-22T01:35:08.459Z,99522
2014-07-22T01:35:26.678Z,99522
2014-07-22T01:35:44.881Z,99522
2014-07-22T01:36:03.100Z,99519
2014-07-22T01:36:21.321Z,99519
2014-07-22T01:36:39.539Z,99522
2014-07-22T01:36:57.743Z,99525
2014-07-22T01:37:15.979Z,99525
2014-07-22T01:37:34.182Z,99519
2014-07-22T01:37:52.385Z,99516
2014-07-22T01:38:10.622Z,99516
2014-07-22T01:38:28.825Z,99522
2014-07-22T01:38:47.059Z,99525
2014-07-22T01:39:05.247Z,99516
2014-07-22T01:39:23.482Z,99525
2014-07-22T01:39:41.701Z,99522
2014-07-22T01:39:59.919Z,99525
2014-07-22T01:40:18.109Z,99522
2014-07-22T01:40:36.328Z,99528
2014-07-22T01:40:54.562Z,99530
2014-07-22T01:41:12.798Z,99516
2014-07-22T01:41:45.158Z,99525
2014-07-22T01:42:03.392Z,99516
2014-07-22T01:42:21.597Z,99522
2014-07-22T01:42:39.925Z,99522
2014-07-22T01:42:58.129Z,99522
2014-07-22T01:43:16.350Z,99522
2014-07-22T01:43:34.553Z,99522
2014-07-22T01:43:52.788Z,99519
2014-07-22T01:44:11.007Z,99522
2014-07-22T01:44:29.211Z,99525
2014-07-22T01:44:47.414Z,99528
2014-07-22T01:45:05.633Z,99516
2014-07-22T01:45:23.870Z,99522
2014-07-22T01:45:42.073Z,99528
2014-07-22T01:46:14.495Z,99522
2014-07-22T01:46:32.700Z,99507
2014-07-22T01:46:50.919Z,99519
2014-07-22T01:47:09.153Z,99510
2014-07-22T01:47:27.358Z,99522
2014-07-22T01:47:45.561Z,99525
2014-07-22T01:48:03.796Z,99516
2014-07-22T01:48:22.015Z,99516
2014-07-22T01:48:40.220Z,99519
2014-07-22T01:48:58.423Z,99516
2014-07-22T01:49:16.657Z,99525
2014-07-22T01:49:34.877Z,99513
2014-07-22T01:49:53.080Z,99516
2014-07-22T01:50:11.299Z,99519
2014-07-22T01:50:29.520Z,99530
2014-07-22T01:50:47.738Z,99519
2014-07-22T01:51:05.926Z,99519
2014-07-22T01:51:24.160Z,99525
2014-07-22T01:51:42.398Z,99525
2014-07-22T01:52:00.601Z,99519
2014-07-22T01:52:18.819Z,99510
2014-07-22T01:52:37.025Z,99516
2014-07-22T01:52:55.243Z,99510
2014-07-22T01:53:13.478Z,99516
2014-07-22T01:53:31.666Z,99516
2014-07-22T01:53:49.885Z,99522
2014-07-22T01:54:08.119Z,99525
2014-07-22T01:54:26.432Z,99519
2014-07-22T01:54:44.637Z,99519
2014-07-22T01:55:02.856Z,99510
2014-07-22T01:55:21.074Z,99525
2014-07-22T01:55:39.295Z,99528
2014-07-22T01:55:57.498Z,99522
2014-07-22T01:56:15.717Z,99516
2014-07-22T01:56:33.938Z,99513
2014-07-22T01:56:52.172Z,99528
2014-07-22T01:57:10.407Z,99516
2014-07-22T01:57:28.610Z,99525
2014-07-22T01:57:46.846Z,99525
2014-07-22T01:58:05.049Z,99522
2014-07-22T01:58:55.645Z,99525
2014-07-22T01:59:13.864Z,99530
2014-07-22T01:59:32.082Z,99525
2014-07-22T01:59:50.288Z,99516
2014-07-22T02:00:08.522Z,99522
2014-07-22T02:00:26.741Z,99516
2014-07-22T02:00:44.946Z,99519
2014-07-22T02:01:03.165Z,99519
2014-07-22T02:01:21.383Z,99522
2014-07-22T02:01:39.588Z,99522
2014-07-22T02:01:57.823Z,99525
2014-07-22T02:02:16.026Z,99528
2014-07-22T02:02:34.245Z,99528
2014-07-22T02:02:52.465Z,99516
2014-07-22T02:03:10.684Z,99525
2014-07-22T02:03:28.903Z,99528
2014-07-22T02:03:47.124Z,99522
2014-07-22T02:04:05.342Z,99525
2014-07-22T02:04:23.546Z,99522
2014-07-22T02:04:41.751Z,99528
2014-07-22T02:05:00.001Z,99528
2014-07-22T02:05:18.204Z,99516
2014-07-22T02:05:36.423Z,99525
2014-07-22T02:05:54.643Z,99525
2014-07-22T02:06:12.862Z,99525
2014-07-22T02:06:31.081Z,99525
2014-07-22T02:06:49.302Z,99510
2014-07-22T02:07:07.520Z,99522
2014-07-22T02:07:25.723Z,99522
2014-07-22T02:07:43.944Z,99528
2014-07-22T02:08:02.163Z,99522
2014-07-22T02:08:20.366Z,99525
2014-07-22T02:08:38.600Z,99516
2014-07-22T02:08:56.806Z,99519
2014-07-22T02:09:15.024Z,99525
2014-07-22T02:09:33.227Z,99519
2014-07-22T02:09:51.464Z,99525
2014-07-22T02:10:09.683Z,99522
2014-07-22T02:10:27.901Z,99525
2014-07-22T02:10:46.089Z,99522
2014-07-22T02:11:04.325Z,99516
2014-07-22T02:11:22.544Z,99522
2014-07-22T02:11:40.747Z,99531
2014-07-22T02:11:58.952Z,99528
2014-07-22T02:12:17.187Z,99530
2014-07-22T02:12:35.405Z,99536
2014-07-22T02:12:53.608Z,99525
2014-07-22T02:13:11.829Z,99530
2014-07-22T02:13:30.048Z,99536
2014-07-22T02:13:48.267Z,99536
2014-07-22T02:14:06.472Z,99528
2014-07-22T02:14:24.691Z,99545
2014-07-22T02:14:42.909Z,99533
2014-07-22T02:15:01.159Z,99528
2014-07-22T02:15:19.395Z,99539
2014-07-22T02:15:37.613Z,99531
2014-07-22T02:15:55.801Z,99533
2014-07-22T02:16:14.038Z,99536
2014-07-22T02:16:32.241Z,99533
2014-07-22T02:16:50.476Z,99545
2014-07-22T02:17:08.679Z,99533
2014-07-22T02:17:26.883Z,99533
2014-07-22T02:17:45.102Z,99525
2014-07-22T02:18:03.321Z,99536
2014-07-22T02:18:21.557Z,99533
2014-07-22T02:18:39.744Z,99533
2014-07-22T02:18:57.979Z,99525
2014-07-22T02:19:16.200Z,99533
2014-07-22T02:19:34.403Z,99530
2014-07-22T02:19:52.621Z,99522
2014-07-22T02:20:10.842Z,99530
2014-07-22T02:20:29.061Z,99530
2014-07-22T02:20:47.264Z,99533
2014-07-22T02:21:05.483Z,99530
2014-07-22T02:21:23.688Z,99530
2014-07-22T02:21:41.922Z,99528
2014-07-22T02:22:00.141Z,99536
2014-07-22T02:22:18.346Z,99533
2014-07-22T02:22:36.565Z,99525
2014-07-22T02:22:54.784Z,99522
2014-07-22T02:23:13.005Z,99539
2014-07-22T02:23:31.209Z,99530
2014-07-22T02:23:49.427Z,99525
2014-07-22T02:24:07.662Z,99528
2014-07-22T02:24:25.867Z,99522
2014-07-22T02:24:44.086Z,99525
2014-07-22T02:25:02.320Z,99525
2014-07-22T02:25:20.540Z,99528
2014-07-22T02:25:38.727Z,99530
2014-07-22T02:25:56.946Z,99525
2014-07-22T02:26:15.180Z,99528
2014-07-22T02:26:33.448Z,99522
2014-07-22T02:26:51.698Z,99533
2014-07-22T02:27:09.917Z,99519
2014-07-22T02:27:28.137Z,99522
2014-07-22T02:27:46.372Z,99519
2014-07-22T02:28:04.559Z,99536
2014-07-22T02:28:36.937Z,99528
2014-07-22T02:28:55.156Z,99525
2014-07-22T02:29:13.375Z,99525
2014-07-22T02:29:31.580Z,99530
2014-07-22T02:29:49.814Z,99525
2014-07-22T02:30:08.033Z,99530
2014-07-22T02:30:26.237Z,99525
2014-07-22T02:30:44.456Z,99528
2014-07-22T02:31:02.675Z,99533
2014-07-22T02:31:20.893Z,99530
2014-07-22T02:31:39.100Z,99530
2014-07-22T02:31:57.303Z,99528
2014-07-22T02:32:15.537Z,99536
2014-07-22T02:32:33.757Z,99539
2014-07-22T02:32:51.976Z,99533
2014-07-22T02:33:10.194Z,99536
2014-07-22T02:33:28.415Z,99530
2014-07-22T02:33:46.618Z,99525
2014-07-22T02:34:04.837Z,99539
2014-07-22T02:34:23.040Z,99530
2014-07-22T02:34:41.261Z,99536
2014-07-22T02:34:59.480Z,99530
2014-07-22T02:35:17.698Z,99533
2014-07-22T02:35:35.903Z,99528
2014-07-22T02:35:54.122Z,99536
2014-07-22T02:36:12.341Z,99533
2014-07-22T02:36:30.560Z,99536
2014-07-22T02:36:48.765Z,99542
2014-07-22T02:37:06.968Z,99539
2014-07-22T02:37:25.187Z,99545
2014-07-22T02:37:43.407Z,99536
2014-07-22T02:38:01.626Z,99531
2014-07-22T02:38:19.845Z,99539
2014-07-22T02:38:38.066Z,99542
2014-07-22T02:38:56.269Z,99533
2014-07-22T02:39:14.472Z,99533
2014-07-22T02:39:32.753Z,99531
2014-07-22T02:39:50.957Z,99542
2014-07-22T02:40:09.192Z,99533
2014-07-22T02:40:27.379Z,99533
2014-07-22T02:40:45.616Z,99539
2014-07-22T02:41:03.834Z,99533
2014-07-22T02:41:22.069Z,99542
2014-07-22T02:41:40.275Z,99533
2014-07-22T02:41:58.994Z,99542
2014-07-22T02:42:17.228Z,99536
2014-07-22T02:42:35.415Z,99539
2014-07-22T02:42:53.699Z,99545
2014-07-22T02:43:11.917Z,99539
2014-07-22T02:43:30.136Z,99536
2014-07-22T02:43:48.340Z,99533
2014-07-22T02:44:06.543Z,99542
2014-07-22T02:44:24.778Z,99536
2014-07-22T02:44:43.000Z,99545
2014-07-22T02:45:01.218Z,99536
2014-07-22T02:45:19.421Z,99542
2014-07-22T02:45:37.640Z,99530
2014-07-22T02:45:55.860Z,99539
2014-07-22T02:46:14.063Z,99539
2014-07-22T02:46:32.266Z,99542
2014-07-22T02:46:50.503Z,99536
2014-07-22T02:47:08.721Z,99533
2014-07-22T02:47:26.924Z,99539
2014-07-22T02:47:45.131Z,99536
2014-07-22T02:48:03.365Z,99542
2014-07-22T02:48:35.740Z,99536
2014-07-22T02:48:53.961Z,99539
2014-07-22T02:49:12.164Z,99539
2014-07-22T02:49:30.383Z,99533
2014-07-22T02:49:48.602Z,99545
2014-07-22T02:50:06.821Z,99542
2014-07-22T02:50:25.040Z,99554
2014-07-22T02:50:43.243Z,99533
2014-07-22T02:51:01.479Z,99542
2014-07-22T02:51:19.698Z,99545
2014-07-22T02:51:37.901Z,99551
2014-07-22T02:51:56.138Z,99542
2014-07-22T02:52:14.341Z,99542
2014-07-22T02:52:32.544Z,99548
2014-07-22T02:52:50.763Z,99542
2014-07-22T02:53:08.983Z,99551
2014-07-22T02:53:27.186Z,99539
2014-07-22T02:53:45.421Z,99545
2014-07-22T02:54:03.626Z,99542
2014-07-22T02:54:21.860Z,99545
2014-07-22T02:54:40.063Z,99545
2014-07-22T02:54:58.376Z,99539
2014-07-22T02:55:16.582Z,99539
2014-07-22T02:55:34.816Z,99551
2014-07-22T02:55:53.035Z,99554
2014-07-22T02:56:11.240Z,99539
2014-07-22T02:56:29.459Z,99548
2014-07-22T02:56:47.678Z,99542
2014-07-22T02:57:05.898Z,99548
2014-07-22T02:57:24.085Z,99548
2014-07-22T02:57:42.304Z,99542
2014-07-22T02:58:00.538Z,99548
2014-07-22T02:58:18.728Z,99551
2014-07-22T02:58:36.962Z,99551
2014-07-22T02:58:55.165Z,99542
2014-07-22T02:59:13.370Z,99554
2014-07-22T02:59:31.620Z,99545
2014-07-22T02:59:49.823Z,99551
2014-07-22T03:00:08.029Z,99551
2014-07-22T03:00:26.247Z,99548
2014-07-22T03:00:44.450Z,99562
2014-07-22T03:01:02.669Z,99536
2014-07-22T03:01:20.890Z,99554
2014-07-22T03:01:39.093Z,99539
2014-07-22T03:01:57.312Z,99548
2014-07-22T03:02:15.533Z,99542
2014-07-22T03:02:33.751Z,99545
2014-07-22T03:02:51.970Z,99539
2014-07-22T03:03:10.175Z,99557
2014-07-22T03:03:28.410Z,99551
2014-07-22T03:03:46.613Z,99557
2014-07-22T03:04:04.847Z,99545
2014-07-22T03:04:23.068Z,99545
2014-07-22T03:04:41.255Z,99545
2014-07-22T03:04:59.490Z,99545
2014-07-22T03:05:17.695Z,99545
2014-07-22T03:05:35.929Z,99557
2014-07-22T03:05:54.117Z,99551
2014-07-22T03:06:12.337Z,99551
2014-07-22T03:06:30.556Z,99554
2014-07-22T03:06:48.759Z,99554
2014-07-22T03:07:06.978Z,99554
2014-07-22T03:07:25.199Z,99548
2014-07-22T03:07:43.418Z,99542
2014-07-22T03:08:01.621Z,99542
2014-07-22T03:08:19.825Z,99539
2014-07-22T03:08:38.044Z,99539
2014-07-22T03:08:56.262Z,99551
2014-07-22T03:09:14.483Z,99539
2014-07-22T03:09:32.686Z,99548
2014-07-22T03:09:50.905Z,99545
2014-07-22T03:10:09.124Z,99548
2014-07-22T03:10:27.329Z,99548
2014-07-22T03:10:45.532Z,99545
2014-07-22T03:11:03.766Z,99551
2014-07-22T03:11:21.988Z,99542
2014-07-22T03:11:40.176Z,99542
2014-07-22T03:11:58.379Z,99545
2014-07-22T03:12:16.599Z,99545
2014-07-22T03:12:34.818Z,99548
2014-07-22T03:12:53.021Z,99551
2014-07-22T03:13:11.226Z,99548
2014-07-22T03:13:29.461Z,99545
2014-07-22T03:13:47.664Z,99539
2014-07-22T03:14:05.883Z,99557
2014-07-22T03:14:24.103Z,99542
2014-07-22T03:14:42.307Z,99545
2014-07-22T03:15:00.525Z,99551
2014-07-22T03:15:18.729Z,99545
2014-07-22T03:15:36.948Z,99557
2014-07-22T03:15:55.167Z,99554
2014-07-22T03:16:13.388Z,99548
2014-07-22T03:16:31.591Z,99551
2014-07-22T03:16:49.825Z,99551
2014-07-22T03:17:08.044Z,99545
2014-07-22T03:17:26.249Z,99548
2014-07-22T03:17:44.468Z,99542
2014-07-22T03:18:02.671Z,99551
2014-07-22T03:18:20.907Z,99554
2014-07-22T03:18:39.095Z,99554
2014-07-22T03:18:57.329Z,99554
2014-07-22T03:19:15.550Z,99551
2014-07-22T03:19:33.737Z,99554
2014-07-22T03:19:51.956Z,99554
2014-07-22T03:20:10.175Z,99554
2014-07-22T03:20:28.396Z,99545
2014-07-22T03:20:46.599Z,99551
2014-07-22T03:21:04.802Z,99554
2014-07-22T03:21:23.038Z,99554
2014-07-22T03:21:41.257Z,99554
2014-07-22T03:21:59.476Z,99562
2014-07-22T03:22:17.681Z,99562
2014-07-22T03:22:35.900Z,99551
2014-07-22T03:22:54.103Z,99557
2014-07-22T03:23:12.306Z,99551
2014-07-22T03:23:30.527Z,99551
2014-07-22T03:23:48.745Z,99557
2014-07-22T03:24:06.964Z,99554
2014-07-22T03:24:25.169Z,99562
2014-07-22T03:24:43.388Z,99557
2014-07-22T03:25:01.607Z,99562
2014-07-22T03:25:19.827Z,99562
2014-07-22T03:25:38.030Z,99570
2014-07-22T03:25:56.233Z,99548
2014-07-22T03:26:14.436Z,99568
2014-07-22T03:26:32.720Z,99565
2014-07-22T03:26:50.923Z,99568
2014-07-22T03:27:09.205Z,99565
2014-07-22T03:27:27.424Z,99551
2014-07-22T03:27:45.643Z,99565
2014-07-22T03:28:03.831Z,99562
2014-07-22T03:28:22.049Z,99557
2014-07-22T03:28:40.286Z,99554
2014-07-22T03:28:58.504Z,99565
2014-07-22T03:29:16.692Z,99562
2014-07-22T03:29:34.913Z,99562
2014-07-22T03:30:07.288Z,99568
2014-07-22T03:30:25.506Z,99562
2014-07-22T03:30:43.728Z,99565
2014-07-22T03:31:01.947Z,99570
2014-07-22T03:31:20.134Z,99562
2014-07-22T03:32:10.730Z,99557
2014-07-22T03:32:28.949Z,99565
2014-07-22T03:32:47.169Z,99570
2014-07-22T03:33:05.372Z,99568
2014-07-22T03:33:23.575Z,99576
2014-07-22T03:33:41.797Z,99557
2014-07-22T03:34:00.031Z,99565
2014-07-22T03:34:18.250Z,99570
2014-07-22T03:34:36.453Z,99568
2014-07-22T03:35:08.814Z,99570
2014-07-22T03:35:27.049Z,99568
2014-07-22T03:35:45.237Z,99570
2014-07-22T03:36:03.472Z,99568
2014-07-22T03:36:21.675Z,99568
2014-07-22T03:36:39.880Z,99573
2014-07-22T03:36:58.099Z,99570
2014-07-22T03:37:16.302Z,99568
2014-07-22T03:37:34.536Z,99570
2014-07-22T03:37:52.757Z,99565
2014-07-22T03:38:10.976Z,99576
2014-07-22T03:38:29.179Z,99562
2014-07-22T03:39:19.774Z,99570
2014-07-22T03:39:37.962Z,99565
2014-07-22T03:39:56.198Z,99565
2014-07-22T03:40:14.417Z,99570
2014-07-22T03:40:32.636Z,99576
2014-07-22T03:40:50.857Z,99570
2014-07-22T03:41:09.091Z,99570
2014-07-22T03:41:27.294Z,99570
2014-07-22T03:41:45.497Z,99573
2014-07-22T03:42:03.718Z,99570
2014-07-22T03:42:22.343Z,99570
2014-07-22T03:42:40.562Z,99570
2014-07-22T03:42:58.767Z,99588
2014-07-22T03:43:16.970Z,99565
2014-07-22T03:43:35.189Z,99570
2014-07-22T03:43:53.407Z,99568
2014-07-22T03:44:11.613Z,99570
2014-07-22T03:44:29.831Z,99570
2014-07-22T03:44:48.050Z,99570
2014-07-22T03:45:06.272Z,99568
2014-07-22T03:45:24.475Z,99570
2014-07-22T03:45:42.694Z,99568
2014-07-22T03:46:00.912Z,99568
2014-07-22T03:46:19.132Z,99565
2014-07-22T03:46:37.335Z,99576
2014-07-22T03:46:55.601Z,99568
2014-07-22T03:47:13.823Z,99573
2014-07-22T03:47:32.041Z,99573
2014-07-22T03:47:50.260Z,99576
2014-07-22T03:48:40.840Z,99573
2014-07-22T03:48:59.075Z,99579
2014-07-22T03:49:17.294Z,99579
2014-07-22T03:49:35.498Z,99568
2014-07-22T03:49:53.701Z,99573
2014-07-22T03:50:11.938Z,99576
2014-07-22T03:50:30.141Z,99585
2014-07-22T03:50:48.360Z,99573
2014-07-22T03:51:06.579Z,99588
2014-07-22T03:51:24.799Z,99570
2014-07-22T03:51:57.174Z,99579
2014-07-22T03:52:15.379Z,99579
2014-07-22T03:52:33.597Z,99576
2014-07-22T03:52:51.816Z,99576
2014-07-22T03:53:10.037Z,99576
2014-07-22T03:53:42.396Z,99579
2014-07-22T03:54:00.615Z,99576
2014-07-22T03:54:18.851Z,99576
2014-07-22T03:54:37.054Z,99579
2014-07-22T03:54:55.336Z,99573
2014-07-22T03:55:13.540Z,99579
2014-07-22T03:55:31.743Z,99576
2014-07-22T03:55:49.962Z,99585
2014-07-22T03:56:08.165Z,99585
2014-07-22T03:56:26.402Z,99576
2014-07-22T03:56:44.605Z,99576
2014-07-22T03:57:02.824Z,99576
2014-07-22T03:57:21.045Z,99579
2014-07-22T03:57:39.279Z,99585
2014-07-22T03:57:57.482Z,99582
2014-07-22T03:58:15.685Z,99585
2014-07-22T03:58:33.906Z,99576
2014-07-22T03:58:52.125Z,99585
2014-07-22T03:59:10.328Z,99582
2014-07-22T03:59:28.550Z,99588
2014-07-22T03:59:46.769Z,99582
2014-07-22T04:00:05.003Z,99585